Plock, Poland
Current Conditions -  °F | °C
As of 11:00 PM on Sunday 21 Dec 2014 (Local Time) from EPMO Reporting Station
Broken Clouds Broken Clouds  
Wind Chill: 31°   Ceiling: 1800
Heat Index: 39°   Visibility: 6mi
Dew Point: 37°   Wind: 14mph
Humidity: 93%   Direction: 240°WSW
Pressure: 29.97"   Gusts: NA
Location:  52.55°N, 19.7°E
Report Text: EPMO 212100Z 24012KT 9999 BKN018 04/03 Q1015
Loading
Personal Weather Stations






























Interactive Weather Map New forecast layout! Learn more

10-Day Weather Forecast

Advertisements
Track Severe Weather on mobile